sensor_id;sensor_type;location;lat;lon;timestamp;temperature;humidity
74511;DHT22;62991;50.040;18.400;2023-07-30T00:01:14;19.10;74.50
74511;DHT22;62991;50.040;18.400;2023-07-30T00:04:15;19.20;75.00
74511;DHT22;62991;50.040;18.400;2023-07-30T00:07:15;19.20;73.30
74511;DHT22;62991;50.040;18.400;2023-07-30T00:10:16;19.20;73.00
74511;DHT22;62991;50.040;18.400;2023-07-30T00:13:17;19.20;72.00
74511;DHT22;62991;50.040;18.400;2023-07-30T00:16:18;19.30;72.30
74511;DHT22;62991;50.040;18.400;2023-07-30T00:19:18;19.30;72.00
74511;DHT22;62991;50.040;18.400;2023-07-30T00:22:19;19.20;71.70
74511;DHT22;62991;50.040;18.400;2023-07-30T00:25:20;19.10;72.80
74511;DHT22;62991;50.040;18.400;2023-07-30T00:28:20;19.10;73.40
74511;DHT22;62991;50.040;18.400;2023-07-30T00:31:21;19.20;73.20
74511;DHT22;62991;50.040;18.400;2023-07-30T00:34:22;19.30;73.50
74511;DHT22;62991;50.040;18.400;2023-07-30T00:37:22;19.20;72.80
74511;DHT22;62991;50.040;18.400;2023-07-30T00:40:23;19.20;72.80
74511;DHT22;62991;50.040;18.400;2023-07-30T00:43:24;19.20;72.70
74511;DHT22;62991;50.040;18.400;2023-07-30T00:46:24;19.30;72.60
74511;DHT22;62991;50.040;18.400;2023-07-30T00:49:25;19.40;71.80
74511;DHT22;62991;50.040;18.400;2023-07-30T00:52:26;19.30;72.60
74511;DHT22;62991;50.040;18.400;2023-07-30T00:55:27;19.40;72.00
74511;DHT22;62991;50.040;18.400;2023-07-30T00:58:27;19.40;71.50
74511;DHT22;62991;50.040;18.400;2023-07-30T01:01:30;19.40;71.20
74511;DHT22;62991;50.040;18.400;2023-07-30T01:04:33;19.30;72.00
74511;DHT22;62991;50.040;18.400;2023-07-30T01:07:34;19.30;72.20
74511;DHT22;62991;50.040;18.400;2023-07-30T01:10:37;19.20;72.10
74511;DHT22;62991;50.040;18.400;2023-07-30T01:13:38;19.20;72.50
74511;DHT22;62991;50.040;18.400;2023-07-30T01:16:39;19.30;72.40
74511;DHT22;62991;50.040;18.400;2023-07-30T01:19:40;19.30;73.00
74511;DHT22;62991;50.040;18.400;2023-07-30T01:22:41;19.40;73.20
74511;DHT22;62991;50.040;18.400;2023-07-30T01:25:42;19.40;73.10
74511;DHT22;62991;50.040;18.400;2023-07-30T01:28:47;19.40;73.50
74511;DHT22;62991;50.040;18.400;2023-07-30T01:31:54;19.30;73.70
74511;DHT22;62991;50.040;18.400;2023-07-30T01:34:57;19.10;74.10
74511;DHT22;62991;50.040;18.400;2023-07-30T01:37:58;19.30;73.60
74511;DHT22;62991;50.040;18.400;2023-07-30T01:40:59;19.20;72.80
74511;DHT22;62991;50.040;18.400;2023-07-30T01:44:00;19.00;73.40
74511;DHT22;62991;50.040;18.400;2023-07-30T01:47:00;19.10;72.80
74511;DHT22;62991;50.040;18.400;2023-07-30T01:50:01;19.00;72.30
74511;DHT22;62991;50.040;18.400;2023-07-30T01:53:02;18.80;73.10
74511;DHT22;62991;50.040;18.400;2023-07-30T01:56:02;18.70;73.20
74511;DHT22;62991;50.040;18.400;2023-07-30T01:59:03;18.90;73.50
74511;DHT22;62991;50.040;18.400;2023-07-30T02:02:04;19.00;72.20
74511;DHT22;62991;50.040;18.400;2023-07-30T02:05:05;19.00;72.90
74511;DHT22;62991;50.040;18.400;2023-07-30T02:08:05;19.00;74.40
74511;DHT22;62991;50.040;18.400;2023-07-30T02:11:06;19.00;74.60
74511;DHT22;62991;50.040;18.400;2023-07-30T02:14:06;19.10;73.70
74511;DHT22;62991;50.040;18.400;2023-07-30T02:17:07;19.10;73.20
74511;DHT22;62991;50.040;18.400;2023-07-30T02:20:08;19.10;73.60
74511;DHT22;62991;50.040;18.400;2023-07-30T02:23:09;18.90;74.70
74511;DHT22;62991;50.040;18.400;2023-07-30T02:26:10;18.80;76.40
74511;DHT22;62991;50.040;18.400;2023-07-30T02:29:11;18.80;77.10
74511;DHT22;62991;50.040;18.400;2023-07-30T02:32:11;18.60;78.00
74511;DHT22;62991;50.040;18.400;2023-07-30T02:35:12;18.70;78.10
74511;DHT22;62991;50.040;18.400;2023-07-30T02:38:13;18.80;77.90
74511;DHT22;62991;50.040;18.400;2023-07-30T02:41:13;18.90;77.60
74511;DHT22;62991;50.040;18.400;2023-07-30T02:44:14;18.90;77.50
74511;DHT22;62991;50.040;18.400;2023-07-30T02:47:15;19.10;76.60
74511;DHT22;62991;50.040;18.400;2023-07-30T02:50:15;19.20;76.20
74511;DHT22;62991;50.040;18.400;2023-07-30T02:53:16;19.10;76.60
74511;DHT22;62991;50.040;18.400;2023-07-30T02:56:17;19.20;76.40
74511;DHT22;62991;50.040;18.400;2023-07-30T02:59:17;19.30;76.00
74511;DHT22;62991;50.040;18.400;2023-07-30T03:02:18;19.30;76.00
74511;DHT22;62991;50.040;18.400;2023-07-30T03:05:19;19.10;76.70
74511;DHT22;62991;50.040;18.400;2023-07-30T03:08:19;19.00;77.40
74511;DHT22;62991;50.040;18.400;2023-07-30T03:11:22;18.90;77.90
74511;DHT22;62991;50.040;18.400;2023-07-30T03:14:23;18.80;78.30
74511;DHT22;62991;50.040;18.400;2023-07-30T03:17:23;18.90;78.30
74511;DHT22;62991;50.040;18.400;2023-07-30T03:20:24;18.80;78.80
74511;DHT22;62991;50.040;18.400;2023-07-30T03:23:25;18.70;78.80
74511;DHT22;62991;50.040;18.400;2023-07-30T03:26:25;18.60;79.10
74511;DHT22;62991;50.040;18.400;2023-07-30T03:29:26;18.60;79.30
74511;DHT22;62991;50.040;18.400;2023-07-30T03:32:26;18.70;78.90
74511;DHT22;62991;50.040;18.400;2023-07-30T03:35:27;18.70;78.50
74511;DHT22;62991;50.040;18.400;2023-07-30T03:38:28;18.70;78.40
74511;DHT22;62991;50.040;18.400;2023-07-30T03:41:28;18.80;78.20
74511;DHT22;62991;50.040;18.400;2023-07-30T03:44:29;19.00;77.70
74511;DHT22;62991;50.040;18.400;2023-07-30T03:47:30;19.20;77.00
74511;DHT22;62991;50.040;18.400;2023-07-30T03:50:30;19.30;76.20
74511;DHT22;62991;50.040;18.400;2023-07-30T03:53:31;19.30;75.60
74511;DHT22;62991;50.040;18.400;2023-07-30T03:56:32;19.40;75.80
74511;DHT22;62991;50.040;18.400;2023-07-30T03:59:32;19.40;75.50
74511;DHT22;62991;50.040;18.400;2023-07-30T04:02:33;19.50;75.10
74511;DHT22;62991;50.040;18.400;2023-07-30T04:05:33;19.50;74.80
74511;DHT22;62991;50.040;18.400;2023-07-30T04:08:34;19.50;74.80
74511;DHT22;62991;50.040;18.400;2023-07-30T04:11:35;19.50;74.50
74511;DHT22;62991;50.040;18.400;2023-07-30T04:14:35;19.50;75.20
74511;DHT22;62991;50.040;18.400;2023-07-30T04:17:37;19.50;74.40
74511;DHT22;62991;50.040;18.400;2023-07-30T04:20:37;19.50;74.30
74511;DHT22;62991;50.040;18.400;2023-07-30T04:23:38;19.40;74.70
74511;DHT22;62991;50.040;18.400;2023-07-30T04:26:39;19.50;74.50
74511;DHT22;62991;50.040;18.400;2023-07-30T04:29:39;19.50;74.80
74511;DHT22;62991;50.040;18.400;2023-07-30T04:32:40;19.50;74.30
74511;DHT22;62991;50.040;18.400;2023-07-30T04:35:41;19.40;74.40
74511;DHT22;62991;50.040;18.400;2023-07-30T04:38:41;19.40;74.50
74511;DHT22;62991;50.040;18.400;2023-07-30T04:41:42;19.40;74.00
74511;DHT22;62991;50.040;18.400;2023-07-30T04:44:44;19.40;74.20
74511;DHT22;62991;50.040;18.400;2023-07-30T04:47:44;19.40;74.40
74511;DHT22;62991;50.040;18.400;2023-07-30T04:50:45;19.50;75.00
74511;DHT22;62991;50.040;18.400;2023-07-30T04:53:46;19.60;74.30
74511;DHT22;62991;50.040;18.400;2023-07-30T04:56:46;19.70;74.10
74511;DHT22;62991;50.040;18.400;2023-07-30T04:59:47;19.60;73.90
74511;DHT22;62991;50.040;18.400;2023-07-30T05:02:48;19.70;73.70
74511;DHT22;62991;50.040;18.400;2023-07-30T05:05:48;19.80;73.80
74511;DHT22;62991;50.040;18.400;2023-07-30T05:08:49;19.90;73.80
74511;DHT22;62991;50.040;18.400;2023-07-30T05:11:50;20.00;73.40
74511;DHT22;62991;50.040;18.400;2023-07-30T05:14:52;19.90;74.00
74511;DHT22;62991;50.040;18.400;2023-07-30T05:17:52;19.90;74.40
74511;DHT22;62991;50.040;18.400;2023-07-30T05:20:54;20.10;73.20
74511;DHT22;62991;50.040;18.400;2023-07-30T05:23:54;20.10;72.80
74511;DHT22;62991;50.040;18.400;2023-07-30T05:26:55;20.10;72.70
74511;DHT22;62991;50.040;18.400;2023-07-30T05:29:56;20.20;72.80
74511;DHT22;62991;50.040;18.400;2023-07-30T05:32:56;20.30;73.10
74511;DHT22;62991;50.040;18.400;2023-07-30T05:35:57;20.50;72.70
74511;DHT22;62991;50.040;18.400;2023-07-30T05:38:57;20.70;72.30
74511;DHT22;62991;50.040;18.400;2023-07-30T05:41:58;20.80;72.00
74511;DHT22;62991;50.040;18.400;2023-07-30T05:44:59;20.80;72.00
74511;DHT22;62991;50.040;18.400;2023-07-30T05:47:59;20.80;71.80
74511;DHT22;62991;50.040;18.400;2023-07-30T05:51:00;20.90;71.50
74511;DHT22;62991;50.040;18.400;2023-07-30T05:54:00;21.00;69.60
74511;DHT22;62991;50.040;18.400;2023-07-30T05:57:01;20.80;70.20
74511;DHT22;62991;50.040;18.400;2023-07-30T06:00:02;20.90;70.20
74511;DHT22;62991;50.040;18.400;2023-07-30T06:03:03;20.90;70.40
74511;DHT22;62991;50.040;18.400;2023-07-30T06:06:04;20.90;70.70
74511;DHT22;62991;50.040;18.400;2023-07-30T06:09:04;20.90;71.00
74511;DHT22;62991;50.040;18.400;2023-07-30T06:12:05;20.90;71.40
74511;DHT22;62991;50.040;18.400;2023-07-30T06:15:06;21.00;71.00
74511;DHT22;62991;50.040;18.400;2023-07-30T06:18:07;21.20;69.70
74511;DHT22;62991;50.040;18.400;2023-07-30T06:21:08;21.10;70.90
74511;DHT22;62991;50.040;18.400;2023-07-30T06:24:09;21.30;69.50
74511;DHT22;62991;50.040;18.400;2023-07-30T06:27:09;21.30;69.40
74511;DHT22;62991;50.040;18.400;2023-07-30T06:30:11;21.10;69.00
74511;DHT22;62991;50.040;18.400;2023-07-30T06:33:11;21.20;69.00
74511;DHT22;62991;50.040;18.400;2023-07-30T06:36:12;21.10;69.10
74511;DHT22;62991;50.040;18.400;2023-07-30T06:39:13;21.30;69.10
74511;DHT22;62991;50.040;18.400;2023-07-30T06:42:14;21.40;68.10
74511;DHT22;62991;50.040;18.400;2023-07-30T06:45:14;21.40;68.30
74511;DHT22;62991;50.040;18.400;2023-07-30T06:48:15;21.30;68.20
74511;DHT22;62991;50.040;18.400;2023-07-30T06:51:19;21.40;68.60
74511;DHT22;62991;50.040;18.400;2023-07-30T06:54:20;21.50;68.50
74511;DHT22;62991;50.040;18.400;2023-07-30T06:57:21;21.60;68.40
74511;DHT22;62991;50.040;18.400;2023-07-30T07:00:22;21.80;68.60
74511;DHT22;62991;50.040;18.400;2023-07-30T07:03:23;22.00;68.00
74511;DHT22;62991;50.040;18.400;2023-07-30T07:06:23;22.10;67.00
74511;DHT22;62991;50.040;18.400;2023-07-30T07:09:24;22.20;66.00
74511;DHT22;62991;50.040;18.400;2023-07-30T07:12:25;22.10;65.60
74511;DHT22;62991;50.040;18.400;2023-07-30T07:15:25;22.20;64.20
74511;DHT22;62991;50.040;18.400;2023-07-30T07:18:26;22.20;64.70
74511;DHT22;62991;50.040;18.400;2023-07-30T07:21:26;22.20;64.00
74511;DHT22;62991;50.040;18.400;2023-07-30T07:24:27;22.30;64.30
74511;DHT22;62991;50.040;18.400;2023-07-30T07:27:28;22.50;64.00
74511;DHT22;62991;50.040;18.400;2023-07-30T07:30:28;22.70;62.90
74511;DHT22;62991;50.040;18.400;2023-07-30T07:33:29;22.70;63.80
74511;DHT22;62991;50.040;18.400;2023-07-30T07:36:30;22.90;65.00
74511;DHT22;62991;50.040;18.400;2023-07-30T07:39:30;23.00;65.00
74511;DHT22;62991;50.040;18.400;2023-07-30T07:42:32;23.10;65.90
74511;DHT22;62991;50.040;18.400;2023-07-30T07:45:33;23.10;65.90
74511;DHT22;62991;50.040;18.400;2023-07-30T07:48:34;23.20;67.00
74511;DHT22;62991;50.040;18.400;2023-07-30T07:51:35;23.30;66.40
74511;DHT22;62991;50.040;18.400;2023-07-30T07:54:35;23.40;64.00
74511;DHT22;62991;50.040;18.400;2023-07-30T07:57:36;23.40;62.60
74511;DHT22;62991;50.040;18.400;2023-07-30T08:00:37;23.40;64.10
74511;DHT22;62991;50.040;18.400;2023-07-30T08:03:37;23.40;60.40
74511;DHT22;62991;50.040;18.400;2023-07-30T08:06:38;23.30;59.90
74511;DHT22;62991;50.040;18.400;2023-07-30T08:09:38;23.30;59.80
74511;DHT22;62991;50.040;18.400;2023-07-30T08:12:39;23.20;59.40
74511;DHT22;62991;50.040;18.400;2023-07-30T08:15:40;23.20;60.80
74511;DHT22;62991;50.040;18.400;2023-07-30T08:18:41;23.20;61.00
74511;DHT22;62991;50.040;18.400;2023-07-30T08:21:41;23.10;57.90
74511;DHT22;62991;50.040;18.400;2023-07-30T08:24:42;22.80;60.00
74511;DHT22;62991;50.040;18.400;2023-07-30T08:27:43;22.90;59.00
74511;DHT22;62991;50.040;18.400;2023-07-30T08:30:44;23.00;60.10
74511;DHT22;62991;50.040;18.400;2023-07-30T08:33:45;23.20;60.50
74511;DHT22;62991;50.040;18.400;2023-07-30T08:36:45;23.30;62.00
74511;DHT22;62991;50.040;18.400;2023-07-30T08:39:46;23.40;60.20
74511;DHT22;62991;50.040;18.400;2023-07-30T08:42:47;23.40;60.00
74511;DHT22;62991;50.040;18.400;2023-07-30T08:45:48;23.40;58.80
74511;DHT22;62991;50.040;18.400;2023-07-30T08:48:48;23.30;59.40
74511;DHT22;62991;50.040;18.400;2023-07-30T08:51:52;23.40;60.10
74511;DHT22;62991;50.040;18.400;2023-07-30T08:54:54;23.40;57.90
74511;DHT22;62991;50.040;18.400;2023-07-30T08:57:57;23.40;59.50
74511;DHT22;62991;50.040;18.400;2023-07-30T09:00:59;23.30;60.00
74511;DHT22;62991;50.040;18.400;2023-07-30T09:04:01;23.20;59.30
74511;DHT22;62991;50.040;18.400;2023-07-30T09:07:02;23.20;60.00
74511;DHT22;62991;50.040;18.400;2023-07-30T09:10:03;23.30;61.60
74511;DHT22;62991;50.040;18.400;2023-07-30T09:13:04;23.50;60.40
74511;DHT22;62991;50.040;18.400;2023-07-30T09:16:09;23.40;59.90
74511;DHT22;62991;50.040;18.400;2023-07-30T09:19:16;23.60;60.60
74511;DHT22;62991;50.040;18.400;2023-07-30T09:22:35;23.50;58.60
74511;DHT22;62991;50.040;18.400;2023-07-30T09:25:42;23.40;58.70
74511;DHT22;62991;50.040;18.400;2023-07-30T09:28:42;23.40;57.60
74511;DHT22;62991;50.040;18.400;2023-07-30T09:31:49;23.40;56.70
74511;DHT22;62991;50.040;18.400;2023-07-30T09:35:07;23.40;56.60
74511;DHT22;62991;50.040;18.400;2023-07-30T09:38:08;23.30;57.40
74511;DHT22;62991;50.040;18.400;2023-07-30T09:41:08;23.40;58.90
74511;DHT22;62991;50.040;18.400;2023-07-30T09:44:12;23.60;58.40
74511;DHT22;62991;50.040;18.400;2023-07-30T09:47:13;23.70;57.40
74511;DHT22;62991;50.040;18.400;2023-07-30T09:50:14;23.70;58.10
74511;DHT22;62991;50.040;18.400;2023-07-30T09:53:15;23.80;57.80
74511;DHT22;62991;50.040;18.400;2023-07-30T09:56:16;23.80;55.90
74511;DHT22;62991;50.040;18.400;2023-07-30T09:59:17;23.70;56.90
74511;DHT22;62991;50.040;18.400;2023-07-30T10:02:18;23.90;58.50
74511;DHT22;62991;50.040;18.400;2023-07-30T10:05:20;23.90;57.20
74511;DHT22;62991;50.040;18.400;2023-07-30T10:08:25;23.90;59.80
74511;DHT22;62991;50.040;18.400;2023-07-30T10:11:27;23.90;58.70
74511;DHT22;62991;50.040;18.400;2023-07-30T10:14:28;24.10;58.90
74511;DHT22;62991;50.040;18.400;2023-07-30T10:17:32;24.10;58.80
74511;DHT22;62991;50.040;18.400;2023-07-30T10:20:33;24.30;60.70
74511;DHT22;62991;50.040;18.400;2023-07-30T10:23:34;24.20;58.70
74511;DHT22;62991;50.040;18.400;2023-07-30T10:26:35;24.20;57.70
74511;DHT22;62991;50.040;18.400;2023-07-30T10:29:39;24.10;57.50
74511;DHT22;62991;50.040;18.400;2023-07-30T10:33:02;24.20;57.60
74511;DHT22;62991;50.040;18.400;2023-07-30T10:36:03;24.30;60.80
74511;DHT22;62991;50.040;18.400;2023-07-30T10:39:12;24.30;57.40
74511;DHT22;62991;50.040;18.400;2023-07-30T10:42:13;24.00;57.70
74511;DHT22;62991;50.040;18.400;2023-07-30T10:45:14;24.00;58.50
74511;DHT22;62991;50.040;18.400;2023-07-30T10:48:15;24.00;57.60
74511;DHT22;62991;50.040;18.400;2023-07-30T10:51:18;23.90;58.60
74511;DHT22;62991;50.040;18.400;2023-07-30T10:54:19;23.90;58.20
74511;DHT22;62991;50.040;18.400;2023-07-30T10:57:20;23.90;59.40
74511;DHT22;62991;50.040;18.400;2023-07-30T11:00:22;23.90;59.60
74511;DHT22;62991;50.040;18.400;2023-07-30T11:03:26;23.80;58.50
74511;DHT22;62991;50.040;18.400;2023-07-30T11:06:27;23.80;57.80
74511;DHT22;62991;50.040;18.400;2023-07-30T11:09:28;23.70;59.10
74511;DHT22;62991;50.040;18.400;2023-07-30T11:12:28;23.60;59.90
74511;DHT22;62991;50.040;18.400;2023-07-30T11:15:29;23.60;61.40
74511;DHT22;62991;50.040;18.400;2023-07-30T11:18:33;23.70;60.10
74511;DHT22;62991;50.040;18.400;2023-07-30T11:21:34;23.70;59.70
74511;DHT22;62991;50.040;18.400;2023-07-30T11:24:36;23.70;58.90
74511;DHT22;62991;50.040;18.400;2023-07-30T11:27:47;23.60;58.10
74511;DHT22;62991;50.040;18.400;2023-07-30T11:30:51;23.50;58.80
74511;DHT22;62991;50.040;18.400;2023-07-30T11:33:51;23.60;59.10
74511;DHT22;62991;50.040;18.400;2023-07-30T11:36:54;23.50;57.20
74511;DHT22;62991;50.040;18.400;2023-07-30T11:39:55;23.40;58.10
74511;DHT22;62991;50.040;18.400;2023-07-30T11:42:56;23.50;58.10
74511;DHT22;62991;50.040;18.400;2023-07-30T11:46:17;23.40;57.20
74511;DHT22;62991;50.040;18.400;2023-07-30T11:49:19;23.50;58.40
74511;DHT22;62991;50.040;18.400;2023-07-30T11:52:22;23.50;57.30
74511;DHT22;62991;50.040;18.400;2023-07-30T11:55:23;23.50;56.10
74511;DHT22;62991;50.040;18.400;2023-07-30T11:58:28;23.50;56.40
74511;DHT22;62991;50.040;18.400;2023-07-30T12:01:30;23.50;57.10
74511;DHT22;62991;50.040;18.400;2023-07-30T12:04:43;23.50;57.60
74511;DHT22;62991;50.040;18.400;2023-07-30T12:07:47;23.70;58.20
74511;DHT22;62991;50.040;18.400;2023-07-30T12:10:47;23.80;58.40
74511;DHT22;62991;50.040;18.400;2023-07-30T12:13:50;23.90;56.70
74511;DHT22;62991;50.040;18.400;2023-07-30T12:16:50;23.90;56.50
74511;DHT22;62991;50.040;18.400;2023-07-30T12:19:51;24.00;56.10
74511;DHT22;62991;50.040;18.400;2023-07-30T12:22:52;24.00;56.50
74511;DHT22;62991;50.040;18.400;2023-07-30T12:25:52;24.00;56.30
74511;DHT22;62991;50.040;18.400;2023-07-30T12:28:53;24.10;56.70
74511;DHT22;62991;50.040;18.400;2023-07-30T12:31:54;24.30;56.50
74511;DHT22;62991;50.040;18.400;2023-07-30T12:34:56;24.40;56.70
74511;DHT22;62991;50.040;18.400;2023-07-30T12:37:57;24.50;56.90
74511;DHT22;62991;50.040;18.400;2023-07-30T12:40:58;24.60;56.30
74511;DHT22;62991;50.040;18.400;2023-07-30T12:43:58;24.80;56.60
74511;DHT22;62991;50.040;18.400;2023-07-30T12:46:59;24.90;55.90
74511;DHT22;62991;50.040;18.400;2023-07-30T12:50:00;25.00;55.20
74511;DHT22;62991;50.040;18.400;2023-07-30T12:53:00;25.30;55.70
74511;DHT22;62991;50.040;18.400;2023-07-30T12:56:01;25.50;55.00
74511;DHT22;62991;50.040;18.400;2023-07-30T12:59:02;25.70;54.80
74511;DHT22;62991;50.040;18.400;2023-07-30T13:02:02;25.40;53.50
74511;DHT22;62991;50.040;18.400;2023-07-30T13:05:03;25.20;54.30
74511;DHT22;62991;50.040;18.400;2023-07-30T13:08:04;25.30;56.10
74511;DHT22;62991;50.040;18.400;2023-07-30T13:11:05;25.30;55.70
74511;DHT22;62991;50.040;18.400;2023-07-30T13:14:05;25.20;56.00
74511;DHT22;62991;50.040;18.400;2023-07-30T13:17:06;25.20;56.80
74511;DHT22;62991;50.040;18.400;2023-07-30T13:20:07;25.10;55.30
74511;DHT22;62991;50.040;18.400;2023-07-30T13:23:08;25.00;55.50
74511;DHT22;62991;50.040;18.400;2023-07-30T13:26:09;24.80;55.80
74511;DHT22;62991;50.040;18.400;2023-07-30T13:29:09;24.60;56.80
74511;DHT22;62991;50.040;18.400;2023-07-30T13:32:10;24.50;57.10
74511;DHT22;62991;50.040;18.400;2023-07-30T13:35:11;24.20;56.80
74511;DHT22;62991;50.040;18.400;2023-07-30T13:38:12;24.10;57.30
74511;DHT22;62991;50.040;18.400;2023-07-30T13:41:12;24.10;56.90
74511;DHT22;62991;50.040;18.400;2023-07-30T13:44:13;24.20;57.20
74511;DHT22;62991;50.040;18.400;2023-07-30T13:47:14;24.20;58.00
74511;DHT22;62991;50.040;18.400;2023-07-30T13:50:14;24.10;58.50
74511;DHT22;62991;50.040;18.400;2023-07-30T13:53:15;24.10;58.90
74511;DHT22;62991;50.040;18.400;2023-07-30T13:56:16;24.10;59.60
74511;DHT22;62991;50.040;18.400;2023-07-30T13:59:16;24.30;59.30
74511;DHT22;62991;50.040;18.400;2023-07-30T14:02:17;24.40;58.80
74511;DHT22;62991;50.040;18.400;2023-07-30T14:05:18;24.40;58.70
74511;DHT22;62991;50.040;18.400;2023-07-30T14:08:18;24.50;59.20
74511;DHT22;62991;50.040;18.400;2023-07-30T14:11:19;24.60;58.50
74511;DHT22;62991;50.040;18.400;2023-07-30T14:14:20;24.70;58.60
74511;DHT22;62991;50.040;18.400;2023-07-30T14:17:22;24.70;57.90
74511;DHT22;62991;50.040;18.400;2023-07-30T14:20:23;24.80;58.30
74511;DHT22;62991;50.040;18.400;2023-07-30T14:23:23;24.60;57.50
74511;DHT22;62991;50.040;18.400;2023-07-30T14:26:24;24.60;58.10
74511;DHT22;62991;50.040;18.400;2023-07-30T14:29:25;24.70;57.70
74511;DHT22;62991;50.040;18.400;2023-07-30T14:32:25;24.90;57.60
74511;DHT22;62991;50.040;18.400;2023-07-30T14:35:26;24.90;56.70
74511;DHT22;62991;50.040;18.400;2023-07-30T14:38:27;25.00;56.40
74511;DHT22;62991;50.040;18.400;2023-07-30T14:41:27;25.20;55.10
74511;DHT22;62991;50.040;18.400;2023-07-30T14:44:28;25.30;54.60
74511;DHT22;62991;50.040;18.400;2023-07-30T14:47:29;25.60;54.60
74511;DHT22;62991;50.040;18.400;2023-07-30T14:50:29;25.80;53.50
74511;DHT22;62991;50.040;18.400;2023-07-30T14:53:30;25.70;54.00
74511;DHT22;62991;50.040;18.400;2023-07-30T14:56:31;25.70;54.50
74511;DHT22;62991;50.040;18.400;2023-07-30T14:59:31;25.40;53.30
74511;DHT22;62991;50.040;18.400;2023-07-30T15:02:32;25.40;53.50
74511;DHT22;62991;50.040;18.400;2023-07-30T15:05:34;25.10;53.20
74511;DHT22;62991;50.040;18.400;2023-07-30T15:08:36;24.90;53.50
74511;DHT22;62991;50.040;18.400;2023-07-30T15:11:36;24.80;53.00
74511;DHT22;62991;50.040;18.400;2023-07-30T15:14:37;24.60;53.50
74511;DHT22;62991;50.040;18.400;2023-07-30T15:17:37;24.70;53.40
74511;DHT22;62991;50.040;18.400;2023-07-30T15:20:38;24.70;53.70
74511;DHT22;62991;50.040;18.400;2023-07-30T15:23:42;24.60;53.90
74511;DHT22;62991;50.040;18.400;2023-07-30T15:26:44;24.50;53.80
74511;DHT22;62991;50.040;18.400;2023-07-30T15:29:45;24.50;54.20
74511;DHT22;62991;50.040;18.400;2023-07-30T15:32:45;24.50;54.30
74511;DHT22;62991;50.040;18.400;2023-07-30T15:35:46;24.50;53.90
74511;DHT22;62991;50.040;18.400;2023-07-30T15:38:47;24.40;55.00
74511;DHT22;62991;50.040;18.400;2023-07-30T15:41:52;24.40;55.80
74511;DHT22;62991;50.040;18.400;2023-07-30T15:44:53;24.50;55.60
74511;DHT22;62991;50.040;18.400;2023-07-30T15:47:53;24.50;55.60
74511;DHT22;62991;50.040;18.400;2023-07-30T15:50:54;24.50;56.30
74511;DHT22;62991;50.040;18.400;2023-07-30T15:53:55;24.50;55.80
74511;DHT22;62991;50.040;18.400;2023-07-30T15:56:55;24.60;55.50
74511;DHT22;62991;50.040;18.400;2023-07-30T15:59:56;24.50;55.00
74511;DHT22;62991;50.040;18.400;2023-07-30T16:02:57;24.40;55.90
74511;DHT22;62991;50.040;18.400;2023-07-30T16:05:57;24.50;55.80
74511;DHT22;62991;50.040;18.400;2023-07-30T16:08:58;24.40;54.30
74511;DHT22;62991;50.040;18.400;2023-07-30T16:11:59;24.40;54.40
74511;DHT22;62991;50.040;18.400;2023-07-30T16:14:59;24.40;54.70
74511;DHT22;62991;50.040;18.400;2023-07-30T16:18:01;24.50;53.80
74511;DHT22;62991;50.040;18.400;2023-07-30T16:21:05;24.40;54.20
74511;DHT22;62991;50.040;18.400;2023-07-30T16:24:06;24.40;55.40
74511;DHT22;62991;50.040;18.400;2023-07-30T16:27:08;24.40;55.40
74511;DHT22;62991;50.040;18.400;2023-07-30T16:30:08;24.30;56.70
74511;DHT22;62991;50.040;18.400;2023-07-30T16:33:09;24.30;56.90
74511;DHT22;62991;50.040;18.400;2023-07-30T16:36:10;24.40;56.30
74511;DHT22;62991;50.040;18.400;2023-07-30T16:39:11;24.50;56.70
74511;DHT22;62991;50.040;18.400;2023-07-30T16:42:12;24.50;56.60
74511;DHT22;62991;50.040;18.400;2023-07-30T16:45:13;24.70;56.60
74511;DHT22;62991;50.040;18.400;2023-07-30T16:48:14;24.60;56.80
74511;DHT22;62991;50.040;18.400;2023-07-30T16:51:14;24.70;56.20
74511;DHT22;62991;50.040;18.400;2023-07-30T16:54:16;24.40;56.40
74511;DHT22;62991;50.040;18.400;2023-07-30T16:57:16;24.40;56.70
74511;DHT22;62991;50.040;18.400;2023-07-30T17:00:17;24.40;56.50
74511;DHT22;62991;50.040;18.400;2023-07-30T17:03:18;24.30;56.80
74511;DHT22;62991;50.040;18.400;2023-07-30T17:06:19;24.40;57.40
74511;DHT22;62991;50.040;18.400;2023-07-30T17:09:20;24.50;56.30
74511;DHT22;62991;50.040;18.400;2023-07-30T17:12:22;24.50;56.90
74511;DHT22;62991;50.040;18.400;2023-07-30T17:15:23;24.50;57.00
74511;DHT22;62991;50.040;18.400;2023-07-30T17:18:23;24.40;56.90
74511;DHT22;62991;50.040;18.400;2023-07-30T17:21:24;24.20;57.60
74511;DHT22;62991;50.040;18.400;2023-07-30T17:24:26;24.30;57.70
74511;DHT22;62991;50.040;18.400;2023-07-30T17:27:26;24.00;57.90
74511;DHT22;62991;50.040;18.400;2023-07-30T17:30:27;23.90;58.30
74511;DHT22;62991;50.040;18.400;2023-07-30T17:33:28;23.70;58.60
74511;DHT22;62991;50.040;18.400;2023-07-30T17:36:28;23.70;58.90
74511;DHT22;62991;50.040;18.400;2023-07-30T17:39:34;23.50;59.20
74511;DHT22;62991;50.040;18.400;2023-07-30T17:42:40;23.40;59.50
74511;DHT22;62991;50.040;18.400;2023-07-30T17:45:41;23.30;59.80
74511;DHT22;62991;50.040;18.400;2023-07-30T17:48:41;23.20;60.30
74511;DHT22;62991;50.040;18.400;2023-07-30T17:51:42;23.20;60.50
74511;DHT22;62991;50.040;18.400;2023-07-30T17:54:43;23.10;60.40
74511;DHT22;62991;50.040;18.400;2023-07-30T17:57:43;23.00;60.90
74511;DHT22;62991;50.040;18.400;2023-07-30T18:00:45;23.10;61.20
74511;DHT22;62991;50.040;18.400;2023-07-30T18:03:47;23.00;61.10
74511;DHT22;62991;50.040;18.400;2023-07-30T18:06:48;22.80;61.20
74511;DHT22;62991;50.040;18.400;2023-07-30T18:09:50;22.70;61.70
74511;DHT22;62991;50.040;18.400;2023-07-30T18:12:50;22.70;62.20
74511;DHT22;62991;50.040;18.400;2023-07-30T18:15:52;22.70;62.30
74511;DHT22;62991;50.040;18.400;2023-07-30T18:18:53;22.50;61.90
74511;DHT22;62991;50.040;18.400;2023-07-30T18:21:54;22.40;63.10
74511;DHT22;62991;50.040;18.400;2023-07-30T18:24:54;22.40;62.50
74511;DHT22;62991;50.040;18.400;2023-07-30T18:27:55;22.30;62.70
74511;DHT22;62991;50.040;18.400;2023-07-30T18:30:55;22.10;63.00
74511;DHT22;62991;50.040;18.400;2023-07-30T18:33:56;22.10;63.40
74511;DHT22;62991;50.040;18.400;2023-07-30T18:36:57;22.00;63.60
74511;DHT22;62991;50.040;18.400;2023-07-30T18:39:58;21.80;64.00
74511;DHT22;62991;50.040;18.400;2023-07-30T18:42:59;21.70;64.30
74511;DHT22;62991;50.040;18.400;2023-07-30T18:46:00;21.60;64.50